createdAt,value
2019-05-29T00:01:41.790Z,19.20
2019-05-29T00:04:12.529Z,19.20
2019-05-29T00:06:40.263Z,19.20
2019-05-29T00:09:10.124Z,19.10
2019-05-29T00:11:37.935Z,19.10
2019-05-29T00:14:19.933Z,19.10
2019-05-29T00:16:35.016Z,19.10
2019-05-29T00:19:02.746Z,19.10
2019-05-29T00:21:30.480Z,19.10
2019-05-29T00:23:58.204Z,19.10
2019-05-29T00:26:25.951Z,19.10
2019-05-29T00:28:53.675Z,19.10
2019-05-29T00:31:21.443Z,19.10
2019-05-29T00:33:49.163Z,19.10
2019-05-29T00:36:16.917Z,19.10
2019-05-29T00:38:44.638Z,19.00
2019-05-29T00:41:12.953Z,19.10
2019-05-29T00:43:40.813Z,19.00
2019-05-29T00:46:11.330Z,19.00
2019-05-29T00:48:39.672Z,19.00
2019-05-29T00:51:07.422Z,19.00
2019-05-29T00:53:35.148Z,19.00
2019-05-29T00:56:02.905Z,19.00
2019-05-29T00:58:30.931Z,19.00
2019-05-29T01:00:58.750Z,19.00
2019-05-29T01:03:26.485Z,19.00
2019-05-29T01:05:54.538Z,19.00
2019-05-29T01:08:22.341Z,19.00
2019-05-29T01:10:50.070Z,19.00
2019-05-29T01:13:17.795Z,18.90
2019-05-29T01:15:45.806Z,18.90
2019-05-29T01:18:13.767Z,19.00
2019-05-29T01:20:41.632Z,18.90
2019-05-29T01:23:12.078Z,18.90
2019-05-29T01:25:39.819Z,18.90
2019-05-29T01:28:09.797Z,18.90
2019-05-29T01:30:38.939Z,18.90
2019-05-29T01:33:06.772Z,18.90
2019-05-29T01:35:34.503Z,18.90
2019-05-29T01:38:02.231Z,18.90
2019-05-29T01:40:29.957Z,18.90
2019-05-29T01:42:57.696Z,18.90
2019-05-29T01:45:25.420Z,18.90
2019-05-29T01:47:53.149Z,18.90
2019-05-29T01:50:21.760Z,18.90
2019-05-29T01:52:49.604Z,18.90
2019-05-29T01:55:17.730Z,18.90
2019-05-29T01:57:45.755Z,18.90
2019-05-29T02:00:13.485Z,18.90
2019-05-29T02:02:41.250Z,18.90
2019-05-29T02:05:09.368Z,18.90
2019-05-29T02:07:38.639Z,18.90
2019-05-29T02:10:06.531Z,18.80
2019-05-29T02:12:34.673Z,18.80
2019-05-29T02:15:02.405Z,18.80
2019-05-29T02:17:30.538Z,18.80
2019-05-29T02:19:58.267Z,18.80
2019-05-29T02:22:26.921Z,18.80
2019-05-29T02:24:55.143Z,18.80
2019-05-29T02:27:23.480Z,18.80
2019-05-29T02:29:51.534Z,18.80
2019-05-29T02:32:19.630Z,18.80
2019-05-29T02:34:47.514Z,18.80
2019-05-29T02:37:15.271Z,18.80
2019-05-29T02:39:43.003Z,18.80
2019-05-29T02:42:10.726Z,18.80
2019-05-29T02:44:39.761Z,18.80
2019-05-29T02:47:07.502Z,18.80
2019-05-29T02:49:35.351Z,18.80
2019-05-29T02:52:03.134Z,18.80
2019-05-29T02:54:32.203Z,18.80
2019-05-29T02:57:00.186Z,18.80
2019-05-29T02:59:29.648Z,18.80
2019-05-29T03:01:57.271Z,18.80
2019-05-29T03:04:26.232Z,18.80
2019-05-29T03:06:54.536Z,18.80
2019-05-29T03:09:22.808Z,18.70
2019-05-29T03:11:50.899Z,18.70
2019-05-29T03:14:18.618Z,18.70
2019-05-29T03:16:46.348Z,18.80
2019-05-29T03:19:14.083Z,18.80
2019-05-29T03:21:41.804Z,18.80
2019-05-29T03:24:11.188Z,18.70
2019-05-29T03:26:38.990Z,18.70
2019-05-29T03:29:06.717Z,18.70
2019-05-29T03:31:41.985Z,18.70
2019-05-29T03:34:03.820Z,18.70
2019-05-29T03:36:37.925Z,18.70
2019-05-29T03:39:00.933Z,18.70
2019-05-29T03:41:30.185Z,18.70
2019-05-29T03:43:58.113Z,18.70
2019-05-29T03:46:37.020Z,18.70
2019-05-29T03:48:55.239Z,18.70
2019-05-29T03:51:22.975Z,18.70
2019-05-29T03:53:51.131Z,18.70
2019-05-29T03:56:18.858Z,18.70
2019-05-29T03:58:46.598Z,18.70
2019-05-29T04:01:14.328Z,18.70
2019-05-29T04:03:42.077Z,18.70
2019-05-29T04:06:09.804Z,18.80
2019-05-29T04:08:39.535Z,18.80
2019-05-29T04:11:07.106Z,18.80
2019-05-29T04:13:36.249Z,18.90
2019-05-29T04:16:04.234Z,18.90
2019-05-29T04:18:33.685Z,19.00
2019-05-29T04:21:02.009Z,19.00
2019-05-29T04:23:32.112Z,19.00
2019-05-29T04:26:00.308Z,19.00
2019-05-29T04:28:28.090Z,19.00
2019-05-29T04:30:55.774Z,19.00
2019-05-29T04:33:23.500Z,19.00
2019-05-29T04:35:51.237Z,19.00
2019-05-29T04:38:18.951Z,19.00
2019-05-29T04:40:46.689Z,19.00
2019-05-29T04:43:14.425Z,18.90
2019-05-29T04:45:42.145Z,19.00
2019-05-29T04:48:09.872Z,18.90
2019-05-29T04:50:40.511Z,19.00
2019-05-29T04:53:08.940Z,19.00
2019-05-29T04:55:36.986Z,19.00
2019-05-29T04:58:04.740Z,19.00
2019-05-29T05:00:33.089Z,18.90
2019-05-29T05:03:01.019Z,18.90
2019-05-29T05:05:29.116Z,18.90
2019-05-29T05:07:56.861Z,18.90
2019-05-29T05:10:26.284Z,18.90
2019-05-29T05:12:54.089Z,18.90
2019-05-29T05:15:22.360Z,18.90
2019-05-29T05:17:50.481Z,18.80
2019-05-29T05:20:18.334Z,18.80
2019-05-29T05:22:46.546Z,18.80
2019-05-29T05:25:14.545Z,18.80
2019-05-29T05:27:42.564Z,18.90
2019-05-29T05:30:10.300Z,18.90
2019-05-29T05:32:41.158Z,18.90
2019-05-29T05:35:14.310Z,19.00
2019-05-29T05:37:41.189Z,19.00
2019-05-29T05:40:09.287Z,19.00
2019-05-29T05:42:37.253Z,19.00
2019-05-29T05:45:07.962Z,19.00
2019-05-29T05:47:52.969Z,19.00
2019-05-29T05:50:05.832Z,19.00
2019-05-29T05:52:33.779Z,19.00
2019-05-29T05:55:01.636Z,19.00
2019-05-29T05:57:29.770Z,19.00
2019-05-29T05:59:57.654Z,19.00
2019-05-29T06:02:25.391Z,19.00
2019-05-29T06:04:53.263Z,19.00
2019-05-29T06:07:20.999Z,18.90
2019-05-29T06:09:48.719Z,18.90
2019-05-29T06:12:16.562Z,18.90
2019-05-29T06:14:44.353Z,18.90
2019-05-29T06:17:12.103Z,18.90
2019-05-29T06:19:41.141Z,18.90
2019-05-29T06:22:09.206Z,18.80
2019-05-29T06:24:37.181Z,18.90
2019-05-29T06:27:04.932Z,18.90
2019-05-29T06:29:33.519Z,18.90
2019-05-29T06:32:01.524Z,18.90
2019-05-29T06:34:29.348Z,19.00
2019-05-29T06:36:57.533Z,19.00
2019-05-29T06:39:25.254Z,19.00
2019-05-29T06:41:52.984Z,19.00
2019-05-29T06:44:20.750Z,19.00
2019-05-29T06:46:48.520Z,19.00
2019-05-29T06:49:16.441Z,19.00
2019-05-29T06:51:44.237Z,19.00
2019-05-29T06:54:11.981Z,19.00
2019-05-29T06:56:43.814Z,18.90
2019-05-29T06:59:11.532Z,18.90
2019-05-29T07:01:39.516Z,18.90
2019-05-29T07:04:11.727Z,18.90
2019-05-29T07:06:36.676Z,18.90
2019-05-29T07:09:05.235Z,18.80
2019-05-29T07:11:33.052Z,18.80
2019-05-29T07:14:00.991Z,18.80
2019-05-29T07:16:43.118Z,18.80
2019-05-29T07:21:28.365Z,18.80
2019-05-29T07:23:56.087Z,18.80
2019-05-29T07:26:23.881Z,18.90
2019-05-29T07:29:06.535Z,18.90
2019-05-29T07:31:21.226Z,18.90
2019-05-29T07:33:49.120Z,19.00
2019-05-29T07:36:16.832Z,19.00
2019-05-29T07:38:54.862Z,19.00
2019-05-29T07:41:13.951Z,19.00
2019-05-29T07:43:42.272Z,19.00
2019-05-29T07:46:09.971Z,19.10
2019-05-29T07:48:42.450Z,19.10
2019-05-29T07:51:10.278Z,19.10
2019-05-29T07:53:40.954Z,19.20
2019-05-29T07:56:22.213Z,19.30
2019-05-29T07:58:41.943Z,19.40
2019-05-29T08:01:13.586Z,19.40
2019-05-29T08:03:41.176Z,19.50
2019-05-29T08:06:12.024Z,19.50
2019-05-29T08:08:41.118Z,19.60
2019-05-29T08:11:12.019Z,19.60
2019-05-29T08:13:39.841Z,19.60
2019-05-29T08:16:11.023Z,19.60
2019-05-29T08:18:41.704Z,19.60
2019-05-29T08:21:10.003Z,19.60
2019-05-29T08:23:38.020Z,19.60
2019-05-29T08:26:05.913Z,19.60
2019-05-29T08:28:33.814Z,19.50
2019-05-29T08:31:01.606Z,19.50
2019-05-29T08:33:29.510Z,19.50
2019-05-29T08:36:00.185Z,19.50
2019-05-29T08:38:27.036Z,19.50
2019-05-29T08:40:54.824Z,19.50
2019-05-29T08:43:22.643Z,19.40
2019-05-29T08:45:52.514Z,19.40
2019-05-29T08:48:19.961Z,19.40
2019-05-29T08:50:47.875Z,19.30
2019-05-29T08:53:15.758Z,19.30
2019-05-29T08:55:44.177Z,19.20
2019-05-29T08:58:12.169Z,19.20
2019-05-29T09:00:40.161Z,19.20
2019-05-29T09:03:08.159Z,19.20
2019-05-29T09:05:35.944Z,19.20
2019-05-29T09:08:03.831Z,19.10
2019-05-29T09:10:31.620Z,19.10
2019-05-29T09:13:04.925Z,19.10
2019-05-29T09:15:28.849Z,19.10
2019-05-29T09:17:56.635Z,19.10
2019-05-29T09:20:41.864Z,19.20
2019-05-29T09:22:54.194Z,19.20
2019-05-29T09:25:23.159Z,19.30
2019-05-29T09:27:51.134Z,19.30
2019-05-29T09:30:20.173Z,19.30
2019-05-29T09:32:51.421Z,19.30
2019-05-29T09:35:19.449Z,19.30
2019-05-29T09:37:47.105Z,19.30
2019-05-29T09:40:18.946Z,19.30
2019-05-29T09:42:46.894Z,19.30
2019-05-29T09:45:14.974Z,19.30
2019-05-29T09:47:43.925Z,19.30
2019-05-29T09:50:12.024Z,19.30
2019-05-29T09:52:40.321Z,19.30
2019-05-29T09:55:08.843Z,19.30
2019-05-29T09:57:36.734Z,19.20
2019-05-29T10:00:06.158Z,19.20
2019-05-29T10:02:34.050Z,19.20
2019-05-29T10:05:02.900Z,19.20
2019-05-29T10:07:31.386Z,19.10
2019-05-29T10:10:00.674Z,19.10
2019-05-29T10:12:28.674Z,19.10
2019-05-29T10:14:57.609Z,19.10
2019-05-29T10:17:25.810Z,19.10
2019-05-29T10:19:55.471Z,19.10
2019-05-29T10:22:23.269Z,19.10
2019-05-29T10:24:51.081Z,19.10
2019-05-29T10:27:18.883Z,19.10
2019-05-29T10:29:50.275Z,19.10
2019-05-29T10:32:16.199Z,19.20
2019-05-29T10:34:44.348Z,19.20
2019-05-29T10:37:12.303Z,19.20
2019-05-29T10:39:40.057Z,19.20
2019-05-29T10:42:09.451Z,19.20
2019-05-29T10:44:39.284Z,19.20
2019-05-29T10:47:07.478Z,19.20
2019-05-29T10:49:35.487Z,19.20
2019-05-29T10:52:14.751Z,19.20
2019-05-29T10:54:32.678Z,19.20
2019-05-29T10:57:00.495Z,19.20
2019-05-29T10:59:28.301Z,19.20
2019-05-29T11:01:56.092Z,19.10
2019-05-29T11:04:24.096Z,19.10
2019-05-29T11:06:52.444Z,19.10
2019-05-29T11:09:21.224Z,19.10
2019-05-29T11:11:50.572Z,19.10
2019-05-29T11:14:18.441Z,19.10
2019-05-29T11:16:47.059Z,19.00
2019-05-29T11:19:15.699Z,19.10
2019-05-29T11:21:43.689Z,19.00
2019-05-29T11:24:11.493Z,19.10
2019-05-29T11:26:39.430Z,19.10
2019-05-29T11:29:07.178Z,19.20
2019-05-29T11:31:35.092Z,19.20
2019-05-29T11:34:02.882Z,19.20
2019-05-29T11:36:30.794Z,19.20
2019-05-29T11:39:03.158Z,19.20
2019-05-29T11:41:28.144Z,19.30
2019-05-29T11:43:56.896Z,19.30
2019-05-29T11:46:24.994Z,19.20
2019-05-29T11:48:53.120Z,19.20
2019-05-29T11:51:21.025Z,19.20
2019-05-29T11:53:48.784Z,19.10
2019-05-29T11:56:16.566Z,19.10
2019-05-29T11:58:44.354Z,19.10
2019-05-29T12:01:12.151Z,19.10
2019-05-29T12:04:05.557Z,19.10
2019-05-29T12:06:11.140Z,19.10
2019-05-29T12:08:39.255Z,19.10
2019-05-29T12:11:07.324Z,19.10
2019-05-29T12:13:35.346Z,19.10
2019-05-29T12:16:03.136Z,19.10
2019-05-29T12:18:30.926Z,19.10
2019-05-29T12:20:58.963Z,19.20
2019-05-29T12:23:27.825Z,19.20
2019-05-29T12:26:18.829Z,19.30
2019-05-29T12:28:25.159Z,19.30
2019-05-29T12:30:53.408Z,19.30
2019-05-29T12:33:21.773Z,19.30
2019-05-29T12:35:50.326Z,19.30
2019-05-29T12:38:18.396Z,19.30
2019-05-29T12:40:46.178Z,19.30
2019-05-29T12:43:26.368Z,19.20
2019-05-29T12:45:43.428Z,19.30
2019-05-29T12:48:13.953Z,19.20
2019-05-29T12:50:40.963Z,19.20
2019-05-29T12:53:26.244Z,19.20
2019-05-29T12:55:39.922Z,19.20
2019-05-29T12:58:09.678Z,19.20
2019-05-29T13:00:37.158Z,19.20
2019-05-29T13:03:05.338Z,19.20
2019-05-29T13:05:33.249Z,19.20
2019-05-29T13:08:02.928Z,19.10
2019-05-29T13:10:31.366Z,19.10
2019-05-29T13:13:04.785Z,19.10
2019-05-29T13:15:28.711Z,19.10
2019-05-29T13:18:02.447Z,19.10
2019-05-29T13:20:26.340Z,19.10
2019-05-29T13:22:55.491Z,19.10
2019-05-29T13:25:23.661Z,19.10
2019-05-29T13:27:51.656Z,19.10
2019-05-29T13:30:19.650Z,19.20
2019-05-29T13:32:47.725Z,19.20
2019-05-29T13:35:16.050Z,19.20
2019-05-29T13:37:43.842Z,19.20
2019-05-29T13:40:11.549Z,19.20
2019-05-29T13:42:39.534Z,19.20
2019-05-29T13:45:16.778Z,19.20
2019-05-29T13:47:36.974Z,19.20
2019-05-29T13:50:09.330Z,19.20
2019-05-29T13:52:35.129Z,19.20
2019-05-29T13:55:03.533Z,19.20
2019-05-29T13:57:31.537Z,19.20
2019-05-29T13:59:59.848Z,19.20
2019-05-29T14:02:27.943Z,19.20
2019-05-29T14:04:55.702Z,19.20
2019-05-29T14:07:23.524Z,19.20
2019-05-29T14:09:51.312Z,19.20
2019-05-29T14:12:19.307Z,19.20
2019-05-29T14:14:47.097Z,19.10
2019-05-29T14:17:14.899Z,19.10
2019-05-29T14:19:42.790Z,19.10
2019-05-29T14:22:10.571Z,19.10
2019-05-29T14:24:39.397Z,19.10
2019-05-29T14:27:07.466Z,19.20
2019-05-29T14:29:35.600Z,19.20
2019-05-29T14:32:03.391Z,19.20
2019-05-29T14:34:31.283Z,19.30
2019-05-29T14:36:59.487Z,19.30
2019-05-29T14:39:27.383Z,19.30
2019-05-29T14:41:55.581Z,19.30
2019-05-29T14:44:23.395Z,19.40
2019-05-29T14:46:51.668Z,19.30
2019-05-29T14:49:19.595Z,19.30
2019-05-29T14:51:47.394Z,19.30
2019-05-29T14:54:15.300Z,19.30
2019-05-29T14:56:43.360Z,19.30
2019-05-29T14:59:11.410Z,19.30
2019-05-29T15:01:39.829Z,19.40
2019-05-29T15:04:09.690Z,19.30
2019-05-29T15:06:37.037Z,19.30
2019-05-29T15:09:05.845Z,19.30
2019-05-29T15:11:33.636Z,19.30
2019-05-29T15:14:01.545Z,19.30
2019-05-29T15:16:29.742Z,19.30
2019-05-29T15:18:57.636Z,19.30
2019-05-29T15:21:25.345Z,19.30
2019-05-29T15:23:53.421Z,19.30
2019-05-29T15:26:21.178Z,19.20
2019-05-29T15:28:48.916Z,19.20
2019-05-29T15:31:16.800Z,19.20
2019-05-29T15:33:44.587Z,19.20
2019-05-29T15:36:13.207Z,19.20
2019-05-29T15:38:41.190Z,19.20
2019-05-29T15:41:12.770Z,19.20
2019-05-29T15:43:40.691Z,19.20
2019-05-29T15:46:10.183Z,19.10
2019-05-29T15:48:38.771Z,19.10
2019-05-29T15:51:07.067Z,19.10
2019-05-29T15:53:34.979Z,19.10
2019-05-29T15:56:16.941Z,19.10
2019-05-29T15:58:32.308Z,19.10
2019-05-29T16:01:00.101Z,19.10
2019-05-29T16:03:28.298Z,19.10
2019-05-29T16:05:56.190Z,19.10
2019-05-29T16:08:23.984Z,19.10
2019-05-29T16:10:51.801Z,19.10
2019-05-29T16:13:19.574Z,19.10
2019-05-29T16:15:47.382Z,19.10
2019-05-29T16:18:22.782Z,19.10
2019-05-29T16:20:44.606Z,19.10
2019-05-29T16:23:13.941Z,19.10
2019-05-29T16:25:41.831Z,19.10
2019-05-29T16:28:13.049Z,19.10
2019-05-29T16:30:41.426Z,19.10
2019-05-29T16:33:09.199Z,19.10
2019-05-29T16:35:37.678Z,19.10
2019-05-29T16:38:05.615Z,19.10
2019-05-29T16:40:33.408Z,19.10
2019-05-29T16:43:01.209Z,19.10
2019-05-29T16:45:29.139Z,19.10
2019-05-29T16:47:56.928Z,19.10
2019-05-29T16:50:24.833Z,19.10
2019-05-29T16:52:52.611Z,19.10
2019-05-29T16:55:21.058Z,19.10
2019-05-29T16:57:49.026Z,19.10
2019-05-29T17:00:17.595Z,19.10
2019-05-29T17:02:45.663Z,19.10
2019-05-29T17:05:13.709Z,19.20
2019-05-29T17:07:41.782Z,19.20
2019-05-29T17:10:11.227Z,19.20
2019-05-29T17:12:39.546Z,19.20
2019-05-29T17:15:10.518Z,19.20
2019-05-29T17:17:41.189Z,19.20
2019-05-29T17:20:09.606Z,19.20
2019-05-29T17:22:37.384Z,19.20
2019-05-29T17:25:05.305Z,19.20
2019-05-29T17:27:33.523Z,19.10
2019-05-29T17:30:01.318Z,19.10
2019-05-29T17:32:29.101Z,19.10
2019-05-29T17:34:56.902Z,19.10
2019-05-29T17:37:25.185Z,19.10
2019-05-29T17:39:53.547Z,19.10
2019-05-29T17:42:22.451Z,19.10
2019-05-29T17:44:50.585Z,19.10
2019-05-29T17:47:19.592Z,19.00
2019-05-29T17:49:47.913Z,19.10
2019-05-29T17:52:15.810Z,19.10
2019-05-29T17:54:43.585Z,19.10
2019-05-29T17:57:11.500Z,19.10
2019-05-29T17:59:39.411Z,19.10
2019-05-29T18:02:07.179Z,19.00
2019-05-29T18:04:34.993Z,18.90
2019-05-29T18:07:02.906Z,18.80
2019-05-29T18:09:30.695Z,18.80
2019-05-29T18:11:58.601Z,18.80
2019-05-29T18:14:27.411Z,18.80
2019-05-29T18:16:55.531Z,18.70
2019-05-29T18:19:23.779Z,18.80
2019-05-29T18:21:51.670Z,18.90
2019-05-29T18:24:19.625Z,19.10
2019-05-29T18:26:47.651Z,19.10
2019-05-29T18:29:16.061Z,19.20
2019-05-29T18:31:43.944Z,19.20
2019-05-29T18:34:11.756Z,19.20
2019-05-29T18:36:41.615Z,19.20
2019-05-29T18:39:11.478Z,19.20
2019-05-29T18:41:42.467Z,19.20
2019-05-29T18:44:10.271Z,19.10
2019-05-29T18:46:40.439Z,19.10
2019-05-29T18:49:09.370Z,19.10
2019-05-29T18:51:37.263Z,19.10
2019-05-29T18:54:05.080Z,19.10
2019-05-29T18:56:32.896Z,19.10
2019-05-29T18:59:01.120Z,19.10
2019-05-29T19:01:30.021Z,19.20
2019-05-29T19:03:58.466Z,19.30
2019-05-29T19:06:27.568Z,19.30
2019-05-29T19:08:55.602Z,19.30
2019-05-29T19:11:23.820Z,19.40
2019-05-29T19:13:52.000Z,19.40
2019-05-29T19:16:20.222Z,19.40
2019-05-29T19:18:48.014Z,19.40
2019-05-29T19:21:15.805Z,19.40
2019-05-29T19:23:43.532Z,19.30
2019-05-29T19:26:11.335Z,19.30
2019-05-29T19:28:41.907Z,19.20
2019-05-29T19:31:12.346Z,19.20
2019-05-29T19:33:40.276Z,19.20
2019-05-29T19:36:10.435Z,19.10
2019-05-29T19:38:39.729Z,19.10
2019-05-29T19:41:09.650Z,19.10
2019-05-29T19:43:37.058Z,19.10
2019-05-29T19:46:04.975Z,19.10
2019-05-29T19:48:33.411Z,19.00
2019-05-29T19:51:01.230Z,19.00
2019-05-29T19:53:29.488Z,19.00
2019-05-29T19:55:57.481Z,19.00
2019-05-29T19:58:25.601Z,19.00
2019-05-29T20:00:53.504Z,19.10
2019-05-29T20:03:21.402Z,19.10
2019-05-29T20:05:49.196Z,19.20
2019-05-29T20:08:17.123Z,19.20
2019-05-29T20:10:45.321Z,19.20
2019-05-29T20:13:13.537Z,19.20
2019-05-29T20:15:41.361Z,19.20
2019-05-29T20:18:11.923Z,19.20
2019-05-29T20:20:42.480Z,19.20
2019-05-29T20:23:10.231Z,19.20
2019-05-29T20:25:40.731Z,19.20
2019-05-29T20:28:08.709Z,19.20
2019-05-29T20:30:36.532Z,19.20
2019-05-29T20:33:04.528Z,19.20
2019-05-29T20:35:32.786Z,19.20
2019-05-29T20:38:00.779Z,19.20
2019-05-29T20:40:28.585Z,19.10
2019-05-29T20:42:56.396Z,19.10
2019-05-29T20:45:24.192Z,19.10
2019-05-29T20:47:52.456Z,19.10
2019-05-29T20:50:20.335Z,19.10
2019-05-29T20:52:48.034Z,19.10
2019-05-29T20:55:15.908Z,19.10
2019-05-29T20:57:43.782Z,19.10
2019-05-29T21:00:13.074Z,19.00
2019-05-29T21:02:42.436Z,19.00
2019-05-29T21:05:10.496Z,19.00
2019-05-29T21:07:41.305Z,19.00
2019-05-29T21:10:12.052Z,19.00
2019-05-29T21:12:44.074Z,19.10
2019-05-29T21:15:09.439Z,19.10
2019-05-29T21:17:37.903Z,19.00
2019-05-29T21:20:06.966Z,19.00
2019-05-29T21:22:34.793Z,19.00
2019-05-29T21:25:07.903Z,19.00
2019-05-29T21:27:32.132Z,19.00
2019-05-29T21:30:00.060Z,19.00
2019-05-29T21:32:27.870Z,19.00
2019-05-29T21:34:55.662Z,19.00
2019-05-29T21:37:23.460Z,18.90
2019-05-29T21:39:51.365Z,18.90
2019-05-29T21:42:19.182Z,18.90
2019-05-29T21:44:47.197Z,18.90
2019-05-29T21:47:15.399Z,18.90
2019-05-29T21:49:43.352Z,18.90
2019-05-29T21:52:11.210Z,18.90
2019-05-29T21:54:39.386Z,18.90
2019-05-29T21:57:08.788Z,18.90
2019-05-29T21:59:37.673Z,18.90
2019-05-29T22:02:05.835Z,18.90
2019-05-29T22:04:33.941Z,18.90
2019-05-29T22:07:01.690Z,18.90
2019-05-29T22:09:29.541Z,18.90
2019-05-29T22:11:58.447Z,18.80
2019-05-29T22:14:26.704Z,18.80
2019-05-29T22:16:55.007Z,18.80
2019-05-29T22:19:22.832Z,18.80
2019-05-29T22:21:50.910Z,18.80
2019-05-29T22:24:18.884Z,18.80
2019-05-29T22:26:46.689Z,18.80
2019-05-29T22:29:18.276Z,18.80
2019-05-29T22:31:44.021Z,18.80
2019-05-29T22:34:11.823Z,18.80
2019-05-29T22:36:41.671Z,18.80
2019-05-29T22:39:11.016Z,18.80
2019-05-29T22:41:40.557Z,18.70
2019-05-29T22:44:11.045Z,18.70
2019-05-29T22:46:40.991Z,18.70
2019-05-29T22:49:11.246Z,18.70
2019-05-29T22:51:41.716Z,18.70
2019-05-29T22:54:11.447Z,18.70
2019-05-29T22:56:41.293Z,18.70
2019-05-29T22:59:09.591Z,18.70
2019-05-29T23:01:39.355Z,18.70
2019-05-29T23:04:07.547Z,18.70
2019-05-29T23:06:36.126Z,18.70
2019-05-29T23:09:05.358Z,18.70
2019-05-29T23:11:33.653Z,18.70
2019-05-29T23:14:02.531Z,18.70
2019-05-29T23:16:30.633Z,18.70
2019-05-29T23:18:58.655Z,18.70
2019-05-29T23:21:26.972Z,18.70
2019-05-29T23:23:55.390Z,18.70
2019-05-29T23:26:23.903Z,18.70
2019-05-29T23:28:52.800Z,18.70
2019-05-29T23:31:21.006Z,18.70
2019-05-29T23:33:49.165Z,18.70
2019-05-29T23:36:17.663Z,18.70
2019-05-29T23:38:45.385Z,18.70
2019-05-29T23:41:13.262Z,18.70
2019-05-29T23:43:41.036Z,18.60
2019-05-29T23:46:08.946Z,18.60
2019-05-29T23:48:36.714Z,18.60
2019-05-29T23:51:04.438Z,18.60
2019-05-29T23:53:32.526Z,18.60
2019-05-29T23:56:00.338Z,18.60
2019-05-29T23:58:28.045Z,18.60
